sensor_id;sensor_type;location;lat;lon;timestamp;P1;durP1;ratioP1;P2;durP2;ratioP2
26040;SDS011;13816;53.628;9.950;2023-04-05T00:01:29;12.57;;;7.40;;
26040;SDS011;13816;53.628;9.950;2023-04-05T00:03:56;10.77;;;6.73;;
26040;SDS011;13816;53.628;9.950;2023-04-05T00:06:26;12.00;;;6.90;;
26040;SDS011;13816;53.628;9.950;2023-04-05T00:08:59;10.47;;;6.80;;
26040;SDS011;13816;53.628;9.950;2023-04-05T00:11:26;10.07;;;7.07;;
26040;SDS011;13816;53.628;9.950;2023-04-05T00:13:54;11.13;;;7.80;;
26040;SDS011;13816;53.628;9.950;2023-04-05T00:16:20;12.63;;;8.17;;
26040;SDS011;13816;53.628;9.950;2023-04-05T00:18:46;10.50;;;6.67;;
26040;SDS011;13816;53.628;9.950;2023-04-05T00:21:16;10.50;;;7.80;;
26040;SDS011;13816;53.628;9.950;2023-04-05T00:23:46;8.47;;;5.90;;
26040;SDS011;13816;53.628;9.950;2023-04-05T00:26:13;9.10;;;7.10;;
26040;SDS011;13816;53.628;9.950;2023-04-05T00:28:45;8.90;;;6.93;;
26040;SDS011;13816;53.628;9.950;2023-04-05T00:31:11;8.47;;;6.50;;
26040;SDS011;13816;53.628;9.950;2023-04-05T00:33:37;9.70;;;7.13;;
26040;SDS011;13816;53.628;9.950;2023-04-05T00:36:10;9.90;;;6.63;;
26040;SDS011;13816;53.628;9.950;2023-04-05T00:38:36;12.53;;;7.10;;
26040;SDS011;13816;53.628;9.950;2023-04-05T00:41:03;11.23;;;7.70;;
26040;SDS011;13816;53.628;9.950;2023-04-05T00:43:29;10.50;;;7.10;;
26040;SDS011;13816;53.628;9.950;2023-04-05T00:45:55;9.87;;;6.87;;
26040;SDS011;13816;53.628;9.950;2023-04-05T00:48:22;11.63;;;7.07;;
26040;SDS011;13816;53.628;9.950;2023-04-05T00:50:48;9.70;;;6.57;;
26040;SDS011;13816;53.628;9.950;2023-04-05T00:53:16;12.20;;;7.60;;
26040;SDS011;13816;53.628;9.950;2023-04-05T00:55:43;10.00;;;7.50;;
26040;SDS011;13816;53.628;9.950;2023-04-05T00:58:10;10.90;;;7.60;;
26040;SDS011;13816;53.628;9.950;2023-04-05T01:00:36;11.83;;;6.87;;
26040;SDS011;13816;53.628;9.950;2023-04-05T01:03:03;9.67;;;7.13;;
26040;SDS011;13816;53.628;9.950;2023-04-05T01:05:37;10.80;;;6.73;;
26040;SDS011;13816;53.628;9.950;2023-04-05T01:10:57;10.90;;;7.10;;
26040;SDS011;13816;53.628;9.950;2023-04-05T01:13:24;12.77;;;7.37;;
26040;SDS011;13816;53.628;9.950;2023-04-05T01:15:51;9.80;;;6.87;;
26040;SDS011;13816;53.628;9.950;2023-04-05T01:18:17;12.07;;;6.50;;
26040;SDS011;13816;53.628;9.950;2023-04-05T01:21:00;8.27;;;6.83;;
26040;SDS011;13816;53.628;9.950;2023-04-05T01:23:45;9.20;;;6.47;;
26040;SDS011;13816;53.628;9.950;2023-04-05T01:31:41;7.90;;;6.53;;
26040;SDS011;13816;53.628;9.950;2023-04-05T01:36:42;8.00;;;6.60;;
26040;SDS011;13816;53.628;9.950;2023-04-05T01:39:12;9.53;;;6.40;;
26040;SDS011;13816;53.628;9.950;2023-04-05T01:41:39;12.40;;;7.23;;
26040;SDS011;13816;53.628;9.950;2023-04-05T01:44:05;13.50;;;7.00;;
26040;SDS011;13816;53.628;9.950;2023-04-05T01:46:31;11.20;;;7.20;;
26040;SDS011;13816;53.628;9.950;2023-04-05T01:48:57;9.80;;;6.70;;
26040;SDS011;13816;53.628;9.950;2023-04-05T01:51:24;10.07;;;6.83;;
26040;SDS011;13816;53.628;9.950;2023-04-05T01:53:50;11.13;;;6.00;;
26040;SDS011;13816;53.628;9.950;2023-04-05T01:56:16;16.30;;;6.20;;
26040;SDS011;13816;53.628;9.950;2023-04-05T01:58:43;10.63;;;6.27;;
26040;SDS011;13816;53.628;9.950;2023-04-05T02:01:09;10.07;;;6.63;;
26040;SDS011;13816;53.628;9.950;2023-04-05T02:03:35;10.63;;;6.37;;
26040;SDS011;13816;53.628;9.950;2023-04-05T02:06:01;12.13;;;7.00;;
26040;SDS011;13816;53.628;9.950;2023-04-05T02:08:28;8.23;;;6.87;;
26040;SDS011;13816;53.628;9.950;2023-04-05T02:10:55;9.23;;;6.53;;
26040;SDS011;13816;53.628;9.950;2023-04-05T02:13:21;9.00;;;6.10;;
26040;SDS011;13816;53.628;9.950;2023-04-05T02:15:48;13.53;;;7.20;;
26040;SDS011;13816;53.628;9.950;2023-04-05T02:18:14;13.37;;;7.23;;
26040;SDS011;13816;53.628;9.950;2023-04-05T02:20:46;8.80;;;6.03;;
26040;SDS011;13816;53.628;9.950;2023-04-05T02:23:13;9.40;;;6.70;;
26040;SDS011;13816;53.628;9.950;2023-04-05T02:25:39;14.63;;;6.20;;
26040;SDS011;13816;53.628;9.950;2023-04-05T02:28:05;10.63;;;6.63;;
26040;SDS011;13816;53.628;9.950;2023-04-05T02:30:31;9.87;;;6.30;;
26040;SDS011;13816;53.628;9.950;2023-04-05T02:32:57;8.10;;;6.03;;
26040;SDS011;13816;53.628;9.950;2023-04-05T02:35:25;10.67;;;7.37;;
26040;SDS011;13816;53.628;9.950;2023-04-05T02:37:51;12.87;;;6.80;;
26040;SDS011;13816;53.628;9.950;2023-04-05T02:40:17;12.47;;;6.43;;
26040;SDS011;13816;53.628;9.950;2023-04-05T02:42:45;11.17;;;5.83;;
26040;SDS011;13816;53.628;9.950;2023-04-05T02:45:11;7.60;;;6.20;;
26040;SDS011;13816;53.628;9.950;2023-04-05T02:47:38;7.20;;;6.40;;
26040;SDS011;13816;53.628;9.950;2023-04-05T02:50:05;8.83;;;6.70;;
26040;SDS011;13816;53.628;9.950;2023-04-05T02:52:36;12.63;;;5.77;;
26040;SDS011;13816;53.628;9.950;2023-04-05T02:55:06;8.20;;;6.47;;
26040;SDS011;13816;53.628;9.950;2023-04-05T02:57:33;17.70;;;6.20;;
26040;SDS011;13816;53.628;9.950;2023-04-05T03:00:05;10.20;;;6.30;;
26040;SDS011;13816;53.628;9.950;2023-04-05T03:02:33;11.53;;;5.97;;
26040;SDS011;13816;53.628;9.950;2023-04-05T03:05:02;9.17;;;5.87;;
26040;SDS011;13816;53.628;9.950;2023-04-05T03:07:30;8.73;;;6.07;;
26040;SDS011;13816;53.628;9.950;2023-04-05T03:09:59;9.87;;;6.40;;
26040;SDS011;13816;53.628;9.950;2023-04-05T03:12:26;13.00;;;6.87;;
26040;SDS011;13816;53.628;9.950;2023-04-05T03:14:53;9.10;;;6.43;;
26040;SDS011;13816;53.628;9.950;2023-04-05T03:17:22;10.20;;;6.03;;
26040;SDS011;13816;53.628;9.950;2023-04-05T03:19:57;11.63;;;7.10;;
26040;SDS011;13816;53.628;9.950;2023-04-05T03:22:25;10.30;;;6.20;;
26040;SDS011;13816;53.628;9.950;2023-04-05T03:24:53;8.37;;;5.87;;
26040;SDS011;13816;53.628;9.950;2023-04-05T03:27:21;11.57;;;6.53;;
26040;SDS011;13816;53.628;9.950;2023-04-05T03:29:58;7.80;;;6.47;;
26040;SDS011;13816;53.628;9.950;2023-04-05T03:32:25;11.07;;;6.30;;
26040;SDS011;13816;53.628;9.950;2023-04-05T03:34:59;9.40;;;5.80;;
26040;SDS011;13816;53.628;9.950;2023-04-05T03:37:25;8.33;;;6.10;;
26040;SDS011;13816;53.628;9.950;2023-04-05T03:40:07;10.90;;;6.07;;
26040;SDS011;13816;53.628;9.950;2023-04-05T03:42:35;7.80;;;5.80;;
26040;SDS011;13816;53.628;9.950;2023-04-05T03:45:01;8.60;;;5.63;;
26040;SDS011;13816;53.628;9.950;2023-04-05T03:47:27;10.10;;;6.40;;
26040;SDS011;13816;53.628;9.950;2023-04-05T03:49:53;11.20;;;5.33;;
26040;SDS011;13816;53.628;9.950;2023-04-05T03:52:19;9.87;;;6.40;;
26040;SDS011;13816;53.628;9.950;2023-04-05T03:54:45;10.67;;;6.37;;
26040;SDS011;13816;53.628;9.950;2023-04-05T03:57:15;9.30;;;6.13;;
26040;SDS011;13816;53.628;9.950;2023-04-05T03:59:43;7.47;;;5.80;;
26040;SDS011;13816;53.628;9.950;2023-04-05T04:02:11;6.83;;;5.30;;
26040;SDS011;13816;53.628;9.950;2023-04-05T04:04:37;9.20;;;6.03;;
26040;SDS011;13816;53.628;9.950;2023-04-05T04:07:04;9.00;;;5.80;;
26040;SDS011;13816;53.628;9.950;2023-04-05T04:09:30;6.77;;;5.10;;
26040;SDS011;13816;53.628;9.950;2023-04-05T04:12:04;10.67;;;5.93;;
26040;SDS011;13816;53.628;9.950;2023-04-05T04:14:33;8.27;;;5.60;;
26040;SDS011;13816;53.628;9.950;2023-04-05T04:16:59;6.87;;;5.77;;
26040;SDS011;13816;53.628;9.950;2023-04-05T04:19:39;10.63;;;5.40;;
26040;SDS011;13816;53.628;9.950;2023-04-05T04:22:19;10.30;;;5.73;;
26040;SDS011;13816;53.628;9.950;2023-04-05T04:25:14;10.97;;;6.37;;
26040;SDS011;13816;53.628;9.950;2023-04-05T04:28:02;14.80;;;7.20;;
26040;SDS011;13816;53.628;9.950;2023-04-05T04:31:10;5.83;;;5.17;;
26040;SDS011;13816;53.628;9.950;2023-04-05T04:33:56;13.60;;;5.80;;
26040;SDS011;13816;53.628;9.950;2023-04-05T04:36:52;8.40;;;5.97;;
26040;SDS011;13816;53.628;9.950;2023-04-05T04:39:46;9.80;;;5.67;;
26040;SDS011;13816;53.628;9.950;2023-04-05T04:42:33;11.27;;;6.87;;
26040;SDS011;13816;53.628;9.950;2023-04-05T04:45:21;8.73;;;5.63;;
26040;SDS011;13816;53.628;9.950;2023-04-05T04:47:57;10.33;;;6.00;;
26040;SDS011;13816;53.628;9.950;2023-04-05T04:50:44;11.23;;;6.77;;
26040;SDS011;13816;53.628;9.950;2023-04-05T04:53:11;8.23;;;5.93;;
26040;SDS011;13816;53.628;9.950;2023-04-05T04:55:38;9.23;;;6.10;;
26040;SDS011;13816;53.628;9.950;2023-04-05T04:58:06;10.77;;;6.57;;
26040;SDS011;13816;53.628;9.950;2023-04-05T05:00:40;12.10;;;6.77;;
26040;SDS011;13816;53.628;9.950;2023-04-05T05:03:11;15.90;;;6.73;;
26040;SDS011;13816;53.628;9.950;2023-04-05T05:05:44;12.03;;;5.97;;
26040;SDS011;13816;53.628;9.950;2023-04-05T05:08:12;12.10;;;5.80;;
26040;SDS011;13816;53.628;9.950;2023-04-05T05:10:40;9.20;;;6.27;;
26040;SDS011;13816;53.628;9.950;2023-04-05T05:13:06;11.13;;;6.80;;
26040;SDS011;13816;53.628;9.950;2023-04-05T05:15:32;7.73;;;6.00;;
26040;SDS011;13816;53.628;9.950;2023-04-05T05:17:58;11.10;;;6.80;;
26040;SDS011;13816;53.628;9.950;2023-04-05T05:20:25;9.40;;;6.70;;
26040;SDS011;13816;53.628;9.950;2023-04-05T05:22:54;12.47;;;7.20;;
26040;SDS011;13816;53.628;9.950;2023-04-05T05:25:20;12.37;;;7.03;;
26040;SDS011;13816;53.628;9.950;2023-04-05T05:27:47;13.70;;;7.77;;
26040;SDS011;13816;53.628;9.950;2023-04-05T05:30:14;13.43;;;7.17;;
26040;SDS011;13816;53.628;9.950;2023-04-05T05:32:40;19.60;;;8.07;;
26040;SDS011;13816;53.628;9.950;2023-04-05T05:35:07;12.20;;;8.33;;
26040;SDS011;13816;53.628;9.950;2023-04-05T05:37:33;11.10;;;8.10;;
26040;SDS011;13816;53.628;9.950;2023-04-05T05:40:00;13.43;;;8.40;;
26040;SDS011;13816;53.628;9.950;2023-04-05T05:42:28;13.20;;;7.50;;
26040;SDS011;13816;53.628;9.950;2023-04-05T05:44:57;12.33;;;8.33;;
26040;SDS011;13816;53.628;9.950;2023-04-05T05:47:23;12.90;;;8.37;;
26040;SDS011;13816;53.628;9.950;2023-04-05T05:49:49;29.03;;;8.60;;
26040;SDS011;13816;53.628;9.950;2023-04-05T05:52:15;13.00;;;8.27;;
26040;SDS011;13816;53.628;9.950;2023-04-05T05:54:41;14.07;;;7.03;;
26040;SDS011;13816;53.628;9.950;2023-04-05T05:57:07;12.67;;;8.33;;
26040;SDS011;13816;53.628;9.950;2023-04-05T05:59:34;18.27;;;8.63;;
26040;SDS011;13816;53.628;9.950;2023-04-05T06:02:00;12.73;;;7.90;;
26040;SDS011;13816;53.628;9.950;2023-04-05T06:04:26;16.07;;;9.10;;
26040;SDS011;13816;53.628;9.950;2023-04-05T06:06:53;17.27;;;7.93;;
26040;SDS011;13816;53.628;9.950;2023-04-05T06:09:19;17.03;;;8.80;;
26040;SDS011;13816;53.628;9.950;2023-04-05T06:11:49;15.57;;;8.40;;
26040;SDS011;13816;53.628;9.950;2023-04-05T06:14:16;14.73;;;7.97;;
26040;SDS011;13816;53.628;9.950;2023-04-05T06:16:42;16.40;;;7.97;;
26040;SDS011;13816;53.628;9.950;2023-04-05T06:19:08;12.93;;;7.33;;
26040;SDS011;13816;53.628;9.950;2023-04-05T06:21:34;17.60;;;10.07;;
26040;SDS011;13816;53.628;9.950;2023-04-05T06:24:00;16.90;;;8.13;;
26040;SDS011;13816;53.628;9.950;2023-04-05T06:26:26;19.27;;;9.57;;
26040;SDS011;13816;53.628;9.950;2023-04-05T06:28:54;15.50;;;8.80;;
26040;SDS011;13816;53.628;9.950;2023-04-05T06:31:30;16.20;;;9.27;;
26040;SDS011;13816;53.628;9.950;2023-04-05T06:33:57;10.30;;;7.47;;
26040;SDS011;13816;53.628;9.950;2023-04-05T06:36:23;15.43;;;8.10;;
26040;SDS011;13816;53.628;9.950;2023-04-05T06:38:49;10.60;;;7.13;;
26040;SDS011;13816;53.628;9.950;2023-04-05T06:41:15;16.57;;;8.63;;
26040;SDS011;13816;53.628;9.950;2023-04-05T06:43:41;11.67;;;7.30;;
26040;SDS011;13816;53.628;9.950;2023-04-05T06:46:08;10.80;;;7.40;;
26040;SDS011;13816;53.628;9.950;2023-04-05T06:48:36;13.37;;;7.60;;
26040;SDS011;13816;53.628;9.950;2023-04-05T06:51:08;11.00;;;7.57;;
26040;SDS011;13816;53.628;9.950;2023-04-05T06:53:35;12.00;;;6.70;;
26040;SDS011;13816;53.628;9.950;2023-04-05T06:56:01;13.73;;;6.03;;
26040;SDS011;13816;53.628;9.950;2023-04-05T06:58:30;13.40;;;6.70;;
26040;SDS011;13816;53.628;9.950;2023-04-05T07:00:56;10.53;;;6.30;;
26040;SDS011;13816;53.628;9.950;2023-04-05T07:03:22;7.23;;;5.70;;
26040;SDS011;13816;53.628;9.950;2023-04-05T07:05:49;13.53;;;6.40;;
26040;SDS011;13816;53.628;9.950;2023-04-05T07:08:16;12.80;;;6.77;;
26040;SDS011;13816;53.628;9.950;2023-04-05T07:10:42;10.10;;;6.77;;
26040;SDS011;13816;53.628;9.950;2023-04-05T07:13:08;9.83;;;6.13;;
26040;SDS011;13816;53.628;9.950;2023-04-05T07:15:34;12.47;;;6.37;;
26040;SDS011;13816;53.628;9.950;2023-04-05T07:18:00;11.23;;;6.60;;
26040;SDS011;13816;53.628;9.950;2023-04-05T07:20:27;14.73;;;5.90;;
26040;SDS011;13816;53.628;9.950;2023-04-05T07:22:53;10.47;;;5.53;;
26040;SDS011;13816;53.628;9.950;2023-04-05T07:25:19;8.87;;;6.40;;
26040;SDS011;13816;53.628;9.950;2023-04-05T07:27:45;15.60;;;5.43;;
26040;SDS011;13816;53.628;9.950;2023-04-05T07:30:11;16.77;;;5.67;;
26040;SDS011;13816;53.628;9.950;2023-04-05T07:32:37;9.87;;;5.37;;
26040;SDS011;13816;53.628;9.950;2023-04-05T07:35:04;9.53;;;5.20;;
26040;SDS011;13816;53.628;9.950;2023-04-05T07:37:30;8.63;;;5.40;;
26040;SDS011;13816;53.628;9.950;2023-04-05T07:39:56;7.70;;;4.97;;
26040;SDS011;13816;53.628;9.950;2023-04-05T07:42:25;6.17;;;4.40;;
26040;SDS011;13816;53.628;9.950;2023-04-05T07:44:53;6.37;;;4.83;;
26040;SDS011;13816;53.628;9.950;2023-04-05T07:47:19;10.43;;;4.37;;
26040;SDS011;13816;53.628;9.950;2023-04-05T07:49:45;5.27;;;3.83;;
26040;SDS011;13816;53.628;9.950;2023-04-05T07:52:12;6.53;;;4.40;;
26040;SDS011;13816;53.628;9.950;2023-04-05T07:54:38;8.03;;;4.83;;
26040;SDS011;13816;53.628;9.950;2023-04-05T07:57:07;8.43;;;4.47;;
26040;SDS011;13816;53.628;9.950;2023-04-05T07:59:33;11.17;;;4.70;;
26040;SDS011;13816;53.628;9.950;2023-04-05T08:01:59;7.43;;;4.90;;
26040;SDS011;13816;53.628;9.950;2023-04-05T08:04:25;8.93;;;5.73;;
26040;SDS011;13816;53.628;9.950;2023-04-05T08:06:51;14.03;;;4.73;;
26040;SDS011;13816;53.628;9.950;2023-04-05T08:09:17;6.23;;;4.50;;
26040;SDS011;13816;53.628;9.950;2023-04-05T08:11:43;7.23;;;4.50;;
26040;SDS011;13816;53.628;9.950;2023-04-05T08:14:10;8.70;;;4.33;;
26040;SDS011;13816;53.628;9.950;2023-04-05T08:16:36;6.30;;;4.63;;
26040;SDS011;13816;53.628;9.950;2023-04-05T08:19:02;8.77;;;4.53;;
26040;SDS011;13816;53.628;9.950;2023-04-05T08:21:28;10.57;;;5.10;;
26040;SDS011;13816;53.628;9.950;2023-04-05T08:23:54;6.40;;;4.70;;
26040;SDS011;13816;53.628;9.950;2023-04-05T08:26:22;6.07;;;4.27;;
26040;SDS011;13816;53.628;9.950;2023-04-05T08:28:48;6.83;;;5.10;;
26040;SDS011;13816;53.628;9.950;2023-04-05T08:31:14;5.53;;;4.57;;
26040;SDS011;13816;53.628;9.950;2023-04-05T08:33:40;6.50;;;4.23;;
26040;SDS011;13816;53.628;9.950;2023-04-05T08:36:07;6.00;;;4.47;;
26040;SDS011;13816;53.628;9.950;2023-04-05T08:38:33;6.23;;;4.10;;
26040;SDS011;13816;53.628;9.950;2023-04-05T08:46:17;7.73;;;3.70;;
26040;SDS011;13816;53.628;9.950;2023-04-05T08:48:43;14.23;;;4.33;;
26040;SDS011;13816;53.628;9.950;2023-04-05T08:51:10;11.37;;;4.33;;
26040;SDS011;13816;53.628;9.950;2023-04-05T08:53:36;8.13;;;4.50;;
26040;SDS011;13816;53.628;9.950;2023-04-05T08:56:02;4.80;;;3.50;;
26040;SDS011;13816;53.628;9.950;2023-04-05T08:58:29;5.30;;;3.67;;
26040;SDS011;13816;53.628;9.950;2023-04-05T09:00:58;5.87;;;3.50;;
26040;SDS011;13816;53.628;9.950;2023-04-05T09:03:29;5.40;;;3.17;;
26040;SDS011;13816;53.628;9.950;2023-04-05T09:05:57;7.97;;;3.70;;
26040;SDS011;13816;53.628;9.950;2023-04-05T09:08:23;9.30;;;4.20;;
26040;SDS011;13816;53.628;9.950;2023-04-05T09:10:50;7.00;;;4.10;;
26040;SDS011;13816;53.628;9.950;2023-04-05T09:13:16;10.90;;;4.30;;
26040;SDS011;13816;53.628;9.950;2023-04-05T09:15:43;8.37;;;4.87;;
26040;SDS011;13816;53.628;9.950;2023-04-05T09:18:11;7.97;;;4.80;;
26040;SDS011;13816;53.628;9.950;2023-04-05T09:20:37;6.43;;;4.43;;
26040;SDS011;13816;53.628;9.950;2023-04-05T09:23:03;13.40;;;5.17;;
26040;SDS011;13816;53.628;9.950;2023-04-05T09:25:36;6.77;;;4.60;;
26040;SDS011;13816;53.628;9.950;2023-04-05T09:28:09;9.90;;;4.47;;
26040;SDS011;13816;53.628;9.950;2023-04-05T09:30:36;12.27;;;4.07;;
26040;SDS011;13816;53.628;9.950;2023-04-05T09:33:06;5.50;;;4.50;;
26040;SDS011;13816;53.628;9.950;2023-04-05T09:35:34;11.27;;;4.60;;
26040;SDS011;13816;53.628;9.950;2023-04-05T09:38:01;5.77;;;4.10;;
26040;SDS011;13816;53.628;9.950;2023-04-05T09:40:47;8.30;;;5.53;;
26040;SDS011;13816;53.628;9.950;2023-04-05T09:43:37;5.83;;;4.30;;
26040;SDS011;13816;53.628;9.950;2023-04-05T09:46:03;8.53;;;4.63;;
26040;SDS011;13816;53.628;9.950;2023-04-05T09:48:48;5.57;;;4.23;;
26040;SDS011;13816;53.628;9.950;2023-04-05T09:51:15;5.83;;;4.30;;
26040;SDS011;13816;53.628;9.950;2023-04-05T09:56:24;7.90;;;4.67;;
26040;SDS011;13816;53.628;9.950;2023-04-05T09:58:50;8.33;;;4.80;;
26040;SDS011;13816;53.628;9.950;2023-04-05T10:01:18;6.80;;;4.73;;
26040;SDS011;13816;53.628;9.950;2023-04-05T10:03:46;8.07;;;4.53;;
26040;SDS011;13816;53.628;9.950;2023-04-05T10:06:13;6.20;;;3.70;;
26040;SDS011;13816;53.628;9.950;2023-04-05T10:08:39;4.57;;;3.90;;
26040;SDS011;13816;53.628;9.950;2023-04-05T10:11:05;6.00;;;4.40;;
26040;SDS011;13816;53.628;9.950;2023-04-05T10:13:33;10.57;;;4.30;;
26040;SDS011;13816;53.628;9.950;2023-04-05T10:15:59;7.27;;;3.70;;
26040;SDS011;13816;53.628;9.950;2023-04-05T10:18:28;5.90;;;4.40;;
26040;SDS011;13816;53.628;9.950;2023-04-05T10:20:56;16.50;;;5.37;;
26040;SDS011;13816;53.628;9.950;2023-04-05T10:23:30;10.63;;;4.40;;
26040;SDS011;13816;53.628;9.950;2023-04-05T10:26:07;5.13;;;3.70;;
26040;SDS011;13816;53.628;9.950;2023-04-05T10:28:41;8.73;;;4.50;;
26040;SDS011;13816;53.628;9.950;2023-04-05T10:31:14;6.20;;;4.63;;
26040;SDS011;13816;53.628;9.950;2023-04-05T10:33:44;7.50;;;4.73;;
26040;SDS011;13816;53.628;9.950;2023-04-05T10:41:46;8.67;;;4.47;;
26040;SDS011;13816;53.628;9.950;2023-04-05T10:44:13;6.30;;;5.00;;
26040;SDS011;13816;53.628;9.950;2023-04-05T10:46:39;9.40;;;4.97;;
26040;SDS011;13816;53.628;9.950;2023-04-05T10:51:50;7.30;;;3.93;;
26040;SDS011;13816;53.628;9.950;2023-04-05T10:54:18;10.57;;;4.50;;
26040;SDS011;13816;53.628;9.950;2023-04-05T10:56:44;5.97;;;4.50;;
26040;SDS011;13816;53.628;9.950;2023-04-05T10:59:11;9.73;;;4.37;;
26040;SDS011;13816;53.628;9.950;2023-04-05T11:01:37;5.57;;;3.90;;
26040;SDS011;13816;53.628;9.950;2023-04-05T11:04:09;5.63;;;4.33;;
26040;SDS011;13816;53.628;9.950;2023-04-05T11:06:36;7.40;;;4.30;;
26040;SDS011;13816;53.628;9.950;2023-04-05T11:09:10;4.87;;;3.93;;
26040;SDS011;13816;53.628;9.950;2023-04-05T11:11:43;6.63;;;4.20;;
26040;SDS011;13816;53.628;9.950;2023-04-05T11:14:23;4.70;;;3.60;;
26040;SDS011;13816;53.628;9.950;2023-04-05T11:16:51;6.93;;;4.03;;
26040;SDS011;13816;53.628;9.950;2023-04-05T11:19:18;5.43;;;3.63;;
26040;SDS011;13816;53.628;9.950;2023-04-05T11:21:45;6.70;;;3.53;;
26040;SDS011;13816;53.628;9.950;2023-04-05T11:24:12;7.33;;;3.40;;
26040;SDS011;13816;53.628;9.950;2023-04-05T11:29:09;4.80;;;3.70;;
26040;SDS011;13816;53.628;9.950;2023-04-05T11:31:35;4.50;;;3.50;;
26040;SDS011;13816;53.628;9.950;2023-04-05T11:34:05;4.07;;;3.03;;
26040;SDS011;13816;53.628;9.950;2023-04-05T11:42:04;4.20;;;2.80;;
26040;SDS011;13816;53.628;9.950;2023-04-05T11:44:38;4.47;;;3.03;;
26040;SDS011;13816;53.628;9.950;2023-04-05T11:47:05;6.80;;;4.13;;
26040;SDS011;13816;53.628;9.950;2023-04-05T11:49:32;6.37;;;3.20;;
26040;SDS011;13816;53.628;9.950;2023-04-05T11:52:08;4.00;;;3.60;;
26040;SDS011;13816;53.628;9.950;2023-04-05T11:54:34;6.37;;;4.03;;
26040;SDS011;13816;53.628;9.950;2023-04-05T11:57:00;6.53;;;3.40;;
26040;SDS011;13816;53.628;9.950;2023-04-05T11:59:31;7.60;;;3.50;;
26040;SDS011;13816;53.628;9.950;2023-04-05T12:01:58;7.77;;;3.27;;
26040;SDS011;13816;53.628;9.950;2023-04-05T12:04:24;5.13;;;3.40;;
26040;SDS011;13816;53.628;9.950;2023-04-05T12:07:06;5.87;;;3.40;;
26040;SDS011;13816;53.628;9.950;2023-04-05T12:09:32;6.83;;;4.27;;
26040;SDS011;13816;53.628;9.950;2023-04-05T12:11:58;5.27;;;4.47;;
26040;SDS011;13816;53.628;9.950;2023-04-05T12:14:25;6.20;;;4.60;;
26040;SDS011;13816;53.628;9.950;2023-04-05T12:16:51;6.40;;;3.83;;
26040;SDS011;13816;53.628;9.950;2023-04-05T12:19:17;5.60;;;3.90;;
26040;SDS011;13816;53.628;9.950;2023-04-05T12:21:43;6.00;;;3.83;;
26040;SDS011;13816;53.628;9.950;2023-04-05T12:24:09;6.83;;;4.03;;
26040;SDS011;13816;53.628;9.950;2023-04-05T12:26:35;7.63;;;4.63;;
26040;SDS011;13816;53.628;9.950;2023-04-05T12:29:04;8.23;;;4.27;;
26040;SDS011;13816;53.628;9.950;2023-04-05T12:31:40;6.37;;;4.53;;
26040;SDS011;13816;53.628;9.950;2023-04-05T12:34:07;6.10;;;4.20;;
26040;SDS011;13816;53.628;9.950;2023-04-05T12:36:33;7.87;;;3.80;;
26040;SDS011;13816;53.628;9.950;2023-04-05T12:39:00;7.70;;;4.40;;
26040;SDS011;13816;53.628;9.950;2023-04-05T12:41:29;6.37;;;4.20;;
26040;SDS011;13816;53.628;9.950;2023-04-05T12:43:56;5.40;;;3.90;;
26040;SDS011;13816;53.628;9.950;2023-04-05T12:46:47;6.40;;;4.43;;
26040;SDS011;13816;53.628;9.950;2023-04-05T12:49:13;5.43;;;4.37;;
26040;SDS011;13816;53.628;9.950;2023-04-05T12:51:40;7.30;;;3.70;;
26040;SDS011;13816;53.628;9.950;2023-04-05T12:54:10;9.77;;;4.23;;
26040;SDS011;13816;53.628;9.950;2023-04-05T12:56:37;5.77;;;3.80;;
26040;SDS011;13816;53.628;9.950;2023-04-05T12:59:06;7.57;;;3.63;;
26040;SDS011;13816;53.628;9.950;2023-04-05T13:01:33;6.83;;;3.50;;
26040;SDS011;13816;53.628;9.950;2023-04-05T13:03:59;4.63;;;3.50;;
26040;SDS011;13816;53.628;9.950;2023-04-05T13:06:31;5.77;;;3.23;;
26040;SDS011;13816;53.628;9.950;2023-04-05T13:08:57;4.40;;;3.43;;
26040;SDS011;13816;53.628;9.950;2023-04-05T13:11:23;7.07;;;3.87;;
26040;SDS011;13816;53.628;9.950;2023-04-05T13:13:52;5.37;;;3.60;;
26040;SDS011;13816;53.628;9.950;2023-04-05T13:16:18;5.60;;;3.20;;
26040;SDS011;13816;53.628;9.950;2023-04-05T13:18:45;4.93;;;3.40;;
26040;SDS011;13816;53.628;9.950;2023-04-05T13:21:11;5.53;;;3.13;;
26040;SDS011;13816;53.628;9.950;2023-04-05T13:23:37;5.97;;;3.00;;
26040;SDS011;13816;53.628;9.950;2023-04-05T13:26:04;11.50;;;3.03;;
26040;SDS011;13816;53.628;9.950;2023-04-05T13:28:30;7.00;;;2.57;;
26040;SDS011;13816;53.628;9.950;2023-04-05T13:30:57;6.77;;;3.20;;
26040;SDS011;13816;53.628;9.950;2023-04-05T13:33:23;7.03;;;3.30;;
26040;SDS011;13816;53.628;9.950;2023-04-05T13:35:49;3.23;;;2.70;;
26040;SDS011;13816;53.628;9.950;2023-04-05T13:38:15;3.40;;;3.10;;
26040;SDS011;13816;53.628;9.950;2023-04-05T13:40:41;6.17;;;3.80;;
26040;SDS011;13816;53.628;9.950;2023-04-05T13:43:07;6.13;;;3.97;;
26040;SDS011;13816;53.628;9.950;2023-04-05T13:45:33;8.70;;;4.40;;
26040;SDS011;13816;53.628;9.950;2023-04-05T13:48:01;6.03;;;4.13;;
26040;SDS011;13816;53.628;9.950;2023-04-05T13:50:27;5.37;;;4.57;;
26040;SDS011;13816;53.628;9.950;2023-04-05T13:52:54;6.13;;;3.87;;
26040;SDS011;13816;53.628;9.950;2023-04-05T13:55:20;6.00;;;4.07;;
26040;SDS011;13816;53.628;9.950;2023-04-05T13:57:46;5.97;;;4.40;;
26040;SDS011;13816;53.628;9.950;2023-04-05T14:00:12;9.90;;;4.20;;
26040;SDS011;13816;53.628;9.950;2023-04-05T14:02:38;6.33;;;4.07;;
26040;SDS011;13816;53.628;9.950;2023-04-05T14:05:05;6.53;;;3.77;;
26040;SDS011;13816;53.628;9.950;2023-04-05T14:07:31;11.60;;;4.63;;
26040;SDS011;13816;53.628;9.950;2023-04-05T14:09:58;5.10;;;4.60;;
26040;SDS011;13816;53.628;9.950;2023-04-05T14:12:24;7.50;;;4.10;;
26040;SDS011;13816;53.628;9.950;2023-04-05T14:14:50;4.60;;;4.17;;
26040;SDS011;13816;53.628;9.950;2023-04-05T14:17:16;4.47;;;4.00;;
26040;SDS011;13816;53.628;9.950;2023-04-05T14:19:43;5.30;;;4.27;;
26040;SDS011;13816;53.628;9.950;2023-04-05T14:22:09;11.70;;;4.10;;
26040;SDS011;13816;53.628;9.950;2023-04-05T14:24:35;7.40;;;4.70;;
26040;SDS011;13816;53.628;9.950;2023-04-05T14:27:01;6.00;;;4.53;;
26040;SDS011;13816;53.628;9.950;2023-04-05T14:29:27;6.50;;;4.10;;
26040;SDS011;13816;53.628;9.950;2023-04-05T14:31:54;8.20;;;3.20;;
26040;SDS011;13816;53.628;9.950;2023-04-05T14:34:20;5.03;;;3.63;;
26040;SDS011;13816;53.628;9.950;2023-04-05T14:36:46;3.50;;;2.90;;
26040;SDS011;13816;53.628;9.950;2023-04-05T14:39:13;6.53;;;3.80;;
26040;SDS011;13816;53.628;9.950;2023-04-05T14:42:01;9.10;;;3.90;;
26040;SDS011;13816;53.628;9.950;2023-04-05T14:44:26;4.80;;;3.13;;
26040;SDS011;13816;53.628;9.950;2023-04-05T14:47:04;8.93;;;3.37;;
26040;SDS011;13816;53.628;9.950;2023-04-05T14:49:31;4.83;;;3.47;;
26040;SDS011;13816;53.628;9.950;2023-04-05T14:52:06;5.60;;;2.97;;
26040;SDS011;13816;53.628;9.950;2023-04-05T14:54:33;6.70;;;3.13;;
26040;SDS011;13816;53.628;9.950;2023-04-05T14:57:02;8.00;;;3.30;;
26040;SDS011;13816;53.628;9.950;2023-04-05T14:59:28;4.23;;;2.30;;
26040;SDS011;13816;53.628;9.950;2023-04-05T15:01:58;3.33;;;2.50;;
26040;SDS011;13816;53.628;9.950;2023-04-05T15:04:42;4.40;;;2.17;;
26040;SDS011;13816;53.628;9.950;2023-04-05T15:07:09;3.33;;;2.33;;
26040;SDS011;13816;53.628;9.950;2023-04-05T15:09:41;4.53;;;3.13;;
26040;SDS011;13816;53.628;9.950;2023-04-05T15:12:09;3.57;;;2.57;;
26040;SDS011;13816;53.628;9.950;2023-04-05T15:14:38;4.80;;;2.57;;
26040;SDS011;13816;53.628;9.950;2023-04-05T15:17:11;2.80;;;2.60;;
26040;SDS011;13816;53.628;9.950;2023-04-05T15:19:57;5.80;;;2.93;;
26040;SDS011;13816;53.628;9.950;2023-04-05T15:22:29;5.00;;;2.40;;
26040;SDS011;13816;53.628;9.950;2023-04-05T15:25:22;4.30;;;2.53;;
26040;SDS011;13816;53.628;9.950;2023-04-05T15:28:32;2.87;;;2.23;;